Αναφορές METAR Αεροδρομίων

 

LGTS - THESSALONIKI - GREECE
Ενημερώθηκε: 21/09/2021 23:50
Light thunderstorm, Βροχή, Σχεδόν νεφελώδης
Light thunderstorm, Βροχή, Σχεδόν νεφελώδης
 Ανεμος από Δ
Ανεμος: Δ 9 km/h
Θερμοκρασία: 23°C
Σημ. Δρόσου: 18°C
Υγρασία: 74%
Βαρόμετρο: 1018 hPa
Περίληψη: Light thunderstorm, Βροχή
Clouds: Σχεδόν νεφελώδης
Visibility: 8 km
Cloud details: Αραιές Νεφώσεις 549 m
Σχεδόν νεφελώδης 762 m
2021/09/21 20:50 LGTS 212050Z 28005KT 8000 4000S -TSRA FEW018CB BKN025 23/18 Q1018 TEMPO 5000 TSRA
LGLR - LARTISA - GREECE
Ενημερώθηκε: 21/09/2021 23:50
Μερικώς νεφελώδης
Μερικώς νεφελώδης
 Ανεμος από ΑΒΑ
Ανεμος: ΑΒΑ 9 km/h
Θερμοκρασία: 20°C
Σημ. Δρόσου: 16°C
Υγρασία: 78%
Βαρόμετρο: 1018 hPa
Clouds: Μερικώς νεφελώδης
Visibility: 10 km
Cloud details: Αραιές Νεφώσεις 1219 m
Μερικώς νεφελώδης 2438 m
2021/09/21 20:50 LGLR 212050Z 06005KT 9999 FEW040 SCT080 20/16 Q1018 BLU
 
LGKZ - KOZANI - GREECE
Ενημερώθηκε: 21/09/2021 23:50

 Ανεμος από ΒΒΑ
Ανεμος: ΒΒΑ 11 km/h
Θερμοκρασία: 18°C
Σημ. Δρόσου: 7°C
Υγρασία: 49%
Βαρόμετρο: 1021 hPa
2021/09/21 20:50 LGKZ 212050Z AUTO 03006KT 010V080 //// // ////// 18/07 Q1021 RE//
LGKV - KAVALA - GREECE
Ενημερώθηκε: 21/09/2021 23:20
Αραιές Νεφώσεις
Αραιές Νεφώσεις
 Ανεμος από ΒΑ
Ανεμος: ΒΑ 9 km/h
Θερμοκρασία: 20°C
Σημ. Δρόσου: 15°C
Υγρασία: 73%
Βαρόμετρο: 1018 hPa
Clouds: Αραιές Νεφώσεις
Visibility: 10 km
Cloud details: Αραιές Νεφώσεις 762 m
2021/09/21 20:20 LGKV 212020Z 04005KT 9999 FEW025 20/15 Q1018
 
LGIO - IOANNINA - GREECE
Ενημερώθηκε: 21/09/2021 23:50

 Ανεμος από calm
Ανεμος: Απνοια
Θερμοκρασία: 16°C
Σημ. Δρόσου: 14°C
Υγρασία: 88%
Βαρόμετρο: 1020 hPa
2021/09/21 20:50 LGIO 212050Z AUTO 00000KT //// // ////// 16/14 Q1020 RE//
LGBL - BOLOS - GREECE
Ενημερώθηκε: 21/09/2021 23:50
Μερικώς νεφελώδης
Μερικώς νεφελώδης
 Ανεμος από Α
Ανεμος: Α 17 km/h
Θερμοκρασία: 23°C
Σημ. Δρόσου: 19°C
Υγρασία: 78%
Βαρόμετρο: 1018 hPa
Clouds: Μερικώς νεφελώδης
Visibility: 10 km
Cloud details: Μερικώς νεφελώδης 914 m
Μερικώς νεφελώδης 2438 m
2021/09/21 20:50 LGBL 212050Z 10009KT 9999 SCT030 SCT080 23/19 Q1018
 
LGMT - MITILINI - GREECE
Ενημερώθηκε: 21/09/2021 23:50
Αίθριος
Αίθριος
 Ανεμος από varies
Ανεμος: varies 6 km/h
Θερμοκρασία: 21°C
Σημ. Δρόσου: 16°C
Υγρασία: 73%
Βαρόμετρο: 1017 hPa
Περίληψη: Αίθριος
Visibility: greater than 10 km
2021/09/21 20:50 LGMT 212050Z VRB03KT CAVOK 21/16 Q1017
LGAV - ATHENS - GREECE
Ενημερώθηκε: 21/09/2021 23:50
Αίθριος
Αίθριος
 Ανεμος από ΑΒΑ
Ανεμος: ΑΒΑ 7 km/h
Θερμοκρασία: 22°C
Σημ. Δρόσου: 18°C
Υγρασία: 78%
Βαρόμετρο: 1018 hPa
Περίληψη: Αίθριος
Visibility: greater than 10 km
2021/09/21 20:50 LGAV 212050Z 06004KT CAVOK 22/18 Q1018 NOSIG
 
LGRP - RODOS - GREECE
Ενημερώθηκε: 21/09/2021 23:50
Αραιές Νεφώσεις
Αραιές Νεφώσεις
 Ανεμος από ΔΝΔ
Ανεμος: ΔΝΔ 20 km/h
Θερμοκρασία: 26°C
Σημ. Δρόσου: 20°C
Υγρασία: 70%
Βαρόμετρο: 1013 hPa
Clouds: Αραιές Νεφώσεις
Visibility: 10 km
Cloud details: Αραιές Νεφώσεις 549 m
2021/09/21 20:50 LGRP 212050Z 24011KT 9999 FEW018 26/20 Q1013 NOSIG
LGIR - HRAKLIO/KRITI - GREECE
Ενημερώθηκε: 21/09/2021 23:50
Αίθριος
Αίθριος
 Ανεμος από Ν
Ανεμος: Ν 9 km/h
Θερμοκρασία: 22°C
Σημ. Δρόσου: 21°C
Υγρασία: 94%
Βαρόμετρο: 1016 hPa
Περίληψη: Αίθριος
Visibility: greater than 10 km
2021/09/21 20:50 LGIR 212050Z 17005KT CAVOK 22/21 Q1016 NOSIG
 
LGMK - MIKONOS - GREECE
Ενημερώθηκε: 21/09/2021 23:50
Αίθριος
Αίθριος
 Ανεμος από ΒΒΑ
Ανεμος: ΒΒΑ 19 km/h
Θερμοκρασία: 23°C
Σημ. Δρόσου: 16°C
Υγρασία: 65%
Βαρόμετρο: 1016 hPa
Περίληψη: Αίθριος
Visibility: greater than 10 km
2021/09/21 20:50 LGMK 212050Z 02010KT CAVOK 23/16 Q1016
LGKR - KERKIRA - GREECE
Ενημερώθηκε: 21/09/2021 23:50
Αραιές Νεφώσεις
Αραιές Νεφώσεις
 Ανεμος από ΝΝΔ
Ανεμος: ΝΝΔ 9 km/h
Θερμοκρασία: 22°C
Σημ. Δρόσου: 15°C
Υγρασία: 65%
Βαρόμετρο: 1018 hPa
Clouds: Αραιές Νεφώσεις
Visibility: 10 km
Cloud details: Αραιές Νεφώσεις 610 m
2021/09/21 20:50 LGKR 212050Z 20005KT 9999 FEW020 22/15 Q1018 NOSIG